This is the latest recevied weather packets stored in our database for station/object ac2ev. If no packets are shown the sender has not sent any weather packets the latest 10 day(s).
| Time | Temp. | Humidity | Pressure | Rain* | Wind** | Luminosity | Snow |
|---|---|---|---|---|---|---|---|
| 1777391253 | 13.89° C | 72% | 1011.9 hPa | 0.25 mm | - | - | - |
| 1777390952 | 13.33° C | 73% | 1011.9 hPa | 0.25 mm | - | - | - |
| 1777390652 | 13.33° C | 74% | 1012 hPa | 0.25 mm | - | - | - |
| 1777390352 | 13.33° C | 73% | 1011.9 hPa | 0 mm | - | - | - |
| 1777390052 | 13.89° C | 72% | 1012.1 hPa | 0 mm | - | - | - |
| 1777389751 | 13.89° C | 71% | 1012.4 hPa | 0 mm | - | - | - |
| 1777389452 | 13.89° C | 69% | 1012.5 hPa | 0 mm | - | - | - |
| 1777389153 | 14.44° C | 67% | 1012.1 hPa | 0 mm | - | - | - |
| 1777388851 | 14.44° C | 67% | 1011.8 hPa | 0 mm | - | - | - |
| 1777388251 | 15° C | 64% | 1011.7 hPa | 0 mm | - | - | - |
| 1777387952 | 15.56° C | 61% | 1011.6 hPa | 0 mm | - | - | - |
| 1777387652 | 16.11° C | 55% | 1011.4 hPa | 0 mm | - | - | - |
| 1777387352 | 16.67° C | 52% | 1011.4 hPa | 0 mm | - | - | - |
| 1777387051 | 16.67° C | 52% | 1011.4 hPa | 0 mm | - | - | - |
| 1777386751 | 16.67° C | 51% | 1011.4 hPa | 0 mm | - | - | - |
| 1777386451 | 16.67° C | 50% | 1011.3 hPa | 0 mm | - | - | - |
| 1777386152 | 17.22° C | 48% | 1011.2 hPa | 0 mm | - | - | - |
| 1777385845 | 17.22° C | 47% | 1011.2 hPa | 0 mm | - | - | - |
| 1777385539 | 17.22° C | 46% | 1011.1 hPa | 0 mm | - | - | - |
| 1777385234 | 17.22° C | 45% | 1010.9 hPa | 0 mm | - | - | - |
| 1777384932 | 17.22° C | 45% | 1011.1 hPa | 0 mm | - | - | - |
| 1777384631 | 17.22° C | 45% | 1011 hPa | 0 mm | - | - | - |
| 1777384332 | 17.78° C | 44% | 1011.1 hPa | 0 mm | - | - | - |
| 1777384031 | 17.78° C | 44% | 1011.2 hPa | 0 mm | - | - | - |
| 1777383731 | 17.78° C | 44% | 1011.2 hPa | 0 mm | - | - | - |
* Rain latest hour (hover to see other rain measurements)
** Current wind speed in m/s (hover to see current wind gust speed)